T/t Carrazo — 6YSL6 — position and weather

sailwx.info

Track history (hours):
 
Tides and Currents Weather Stations Pressure Air Temp Water Temp Dewpoint Dewpoint Depression Visibility Wind Speed Wind Dir Waves Ship Positions

T/t Carrazo

Last reported at 2018-Feb-13 15:37 UTC. Time now 2018-Jun-20 09:31 UTC.
Position N 26°09' W 080°06'.
Warning: this ship's position is months out of date.

Length 9 m.

Type: Pleasure craft. MMSI: 339438000.

Date/timePositionNaut miles runAvg speedWind from/ knotsBaromVisibWave heightAir tempDewpointWater temp
2018-Feb-13 15:37N 26°09' W 080°06'1 7.1
2018-Feb-13 15:27N 26°08' W 080°07'3 6.0
2018-Feb-13 15:00N 26°05' W 080°07'4 8.1
2018-Feb-13 14:30N 26°01' W 080°07'4 7.1
2018-Feb-13 13:56N 25°57' W 080°08'1 0.1
2018-Feb-12 21:25N 25°56' W 080°08'0 0.0
2018-Feb-12 20:58N 25°56' W 080°08'0 0.4
2018-Feb-12 20:28N 25°57' W 080°08'  
2018-Feb-05 16:44N 25°57' W 080°08'0 0.0
2018-Feb-05 16:29N 25°57' W 080°08'0 0.0
2018-Feb-05 15:59N 25°57' W 080°08'0 0.3
2018-Feb-05 15:20N 25°56' W 080°08'0 0.0
2018-Feb-05 14:59N 25°56' W 080°08'  
Track history (hours):
 
Tides and Currents Weather Stations Pressure Air Temp Water Temp Dewpoint Dewpoint Depression Visibility Wind Speed Wind Dir Waves Ship Positions

T/t Carrazo

Last reported at 2018-Feb-13 15:37 UTC. Time now 2018-Jun-20 09:31 UTC.
Position N 26°09' W 080°06'.
Warning: this ship's position is months out of date.

Length 9 m.

Type: Pleasure craft. MMSI: 339438000.

Date/timePositionNaut miles runAvg speedWind from/ knotsBaromVisibWave heightAir tempDewpointWater temp
2018-Feb-13 15:37N 26°09' W 080°06'1 7.1
2018-Feb-13 15:27N 26°08' W 080°07'3 6.0
2018-Feb-13 15:00N 26°05' W 080°07'4 8.1
2018-Feb-13 14:30N 26°01' W 080°07'4 7.1
2018-Feb-13 13:56N 25°57' W 080°08'1 0.1
2018-Feb-12 21:25N 25°56' W 080°08'0 0.0
2018-Feb-12 20:58N 25°56' W 080°08'0 0.4
2018-Feb-12 20:28N 25°57' W 080°08'  
2018-Feb-05 16:44N 25°57' W 080°08'0 0.0
2018-Feb-05 16:29N 25°57' W 080°08'0 0.0
2018-Feb-05 15:59N 25°57' W 080°08'0 0.3
2018-Feb-05 15:20N 25°56' W 080°08'0 0.0
2018-Feb-05 14:59N 25°56' W 080°08'  

Dump ship's entire track history